Helotes, Texas
Current Conditions -  °F | °C
As of 10:35 AM on Thursday 30 Oct 2014 (Local Time) from K5C1 Reporting Station
Overcast Overcast  
Wind Chill: 64°   Ceiling: 300
Heat Index: 64°   Visibility: 2.5mi
Dew Point: 63°   Wind: 0mph
Humidity: 94%   Direction: NA
Pressure: 30.18"   Gusts: NA
Location:  29.58°N, 98.69°W
Report Text: K5C1 301535Z AUTO 00000KT 2 1/2SM OVC003 18/17 A3018 RMK AO1
Loading
Personal Weather Stations






























Interactive Weather Map
Tropical Storm Tracking
New forecast layout! Learn more

10-Day Weather Forecast

Advertisements
Track Severe Weather on mobile